WetterOnline ( https://www.wetteronline.de )

Wetter aktuell Honerath

Aktuelles Wetter: Nürburg-Barweiler (488m)

6-stündlich | Neueste Meldungen
Ortszeit Temperatur Wetter
Do, 29.10. 13:00 8.7° C bedeckt
Do, 29.10. 7:00 6.7° C bewölkt
Do, 29.10. 1:00 7.1° C Sprühregen
Mi, 28.10. 19:00 9.3° C bedeckt
Mi, 28.10. 13:00 10.6° C wolkig
Mi, 28.10. 7:00 9.1° C Sprühregen
Mi, 28.10. 1:00 8.3° C bewölkt
Di, 27.10. 19:00 7.9° C bewölkt
Ortszeit Temperatur Wetter
Do, 29.10. 15:30 8.7° C leichter Regen
Do, 29.10. 15:20 8.7° C leichter Regen
Do, 29.10. 15:10 8.7° C Sprühregen
Do, 29.10. 15:00 8.8° C wolkig
Do, 29.10. 14:50 8.8° C wolkig
Do, 29.10. 14:40 8.7° C wolkig
Do, 29.10. 14:30 8.5° C Sprühregen
Do, 29.10. 14:00 8.6° C Sprühregen
Do, 29.10. 12:00 7.8° C Sprühregen
Ortszeit Relative Feuchte Sichtweite
Do, 29.10. 13:00 90% 30 km
Do, 29.10. 7:00 88% 45 km
Do, 29.10. 1:00 93% 26 km
Mi, 28.10. 19:00 80% 35 km
Mi, 28.10. 13:00 69% 45 km
Mi, 28.10. 7:00 93% 29 km
Mi, 28.10. 1:00 95% 17 km
Di, 27.10. 19:00 79% 40 km
Ortszeit Relative Feuchte Sichtweite
Do, 29.10. 15:30 89% 19 km
Do, 29.10. 15:20 89% -
Do, 29.10. 15:10 88% -
Do, 29.10. 15:00 91% 50 km
Do, 29.10. 14:50 91% -
Do, 29.10. 14:40 93% -
Do, 29.10. 14:30 97% 30 km
Do, 29.10. 14:00 93% 6 km
Do, 29.10. 12:00 94% 6 km
Ortszeit Niederschlagsmenge Niederschlagsart
Do, 29.10. 13:00 2 l/m2 in 6 Std. Regen
Do, 29.10. 7:00 5 l/m2 in 12 Std. Regen
Do, 29.10. 1:00 4 l/m2 in 6 Std. Regen
Mi, 28.10. 19:00 0.1 l/m2 in 12 Std. Regen
Mi, 28.10. 13:00 0.1 l/m2 in 6 Std. Regen
Mi, 28.10. 7:00 0.5 l/m2 in 12 Std. Regen
Mi, 28.10. 1:00 0.1 l/m2 in 6 Std. Regen
Di, 27.10. 19:00 0.1 l/m2 in 12 Std. -
Ortszeit Niederschlagsmenge Niederschlagsart
Do, 29.10. 15:30 0.1 l/m2 in 1 Std. -
Do, 29.10. 15:20 keine Meldung -
Do, 29.10. 15:10 keine Meldung -
Do, 29.10. 15:00 0.6 l/m2 in 1 Std. Regen
Do, 29.10. 14:50 keine Meldung -
Do, 29.10. 14:40 keine Meldung -
Do, 29.10. 14:30 0.6 l/m2 in 1 Std. -
Do, 29.10. 14:00 0.1 l/m2 in 1 Std. Regen
Do, 29.10. 12:00 keine Meldung -
Ortszeit Stärke Spitze Richtung
km/h Bft. km/h Grad Sektor
Do, 29.10. 13:00 13 3 33 240° SW
Do, 29.10. 7:00 18 3 54 250° W
Do, 29.10. 1:00 20 4 54 240° SW
Mi, 28.10. 19:00 18 3 47 210° SW
Mi, 28.10. 13:00 22 4 43 240° SW
Mi, 28.10. 7:00 14 3 32 220° SW
Mi, 28.10. 1:00 14 3 50 200° S
Di, 27.10. 19:00 18 3 47 190° S
Ortszeit Stärke Spitze Richtung
km/h Bft. km/h Grad Sektor
Do, 29.10. 15:30 14 3 25 250° W
Do, 29.10. 15:20 14 3 - 250° W
Do, 29.10. 15:10 15 3 - 250° W
Do, 29.10. 15:00 15 3 28 250° W
Do, 29.10. 14:50 15 3 - 250° W
Do, 29.10. 14:40 14 3 - 250° W
Do, 29.10. 14:30 13 3 22 250° W
Do, 29.10. 14:00 13 3 26 240° SW
Do, 29.10. 12:00 11 2 22 230° SW
Ortszeit Untergrenze Bedeckung Gattung
total tief tief mittel hoch
Do, 29.10. 13:00 390 m 8/8 8/8 - - -
Do, 29.10. 7:00 510 m 7/8 7/8 - - -
Do, 29.10. 1:00 1110 m 7/8 7/8 - - -
Mi, 28.10. 19:00 960 m 8/8 8/8 - - -
Mi, 28.10. 13:00 960 m 8/8 3/8 - - -
Mi, 28.10. 7:00 330 m 7/8 7/8 - - -
Mi, 28.10. 1:00 240 m 7/8 7/8 - - -
Di, 27.10. 19:00 840 m 8/8 7/8 - - -
Ortszeit Bedeckungsgrad in Achtel und Wolkenuntergrenze
Do, 29.10. 15:30 1(1380m) 7(1800m)
Do, 29.10. 15:20 1(1380m) 2(1500m) 7(1800m)
Do, 29.10. 15:10 1(1110m) 7(1800m) 7(2400m)
Do, 29.10. 15:00 3(1140m) 6(1800m) 6(2400m)
Do, 29.10. 14:50 3(1140m) 6(1800m) 6(2400m)
Do, 29.10. 14:40 2(240m) 5(1800m) 6(2400m)
Do, 29.10. 14:30 4(180m) 6(300m) 7(540m)
Do, 29.10. 14:00 3(300m) 7(570m) 8(1800m)
Do, 29.10. 12:00 3(510m) 7(840m) 7(1200m)
Ortszeit Luftdruck NN (hPa) Tendenz (hPa in 3 Std.)
Do, 29.10. 13:00 1019 + 1,4
Do, 29.10. 7:00 1014 + 1,6
Do, 29.10. 1:00 1011 + 0,4
Mi, 28.10. 19:00 1010 - 0,5
Mi, 28.10. 13:00 1011 + 0,8
Mi, 28.10. 7:00 1008 + 1,1
Mi, 28.10. 1:00 1006 + 0,5
Di, 27.10. 19:00 1007 - 0,6
Ortszeit Luftdruck NN (hPa) Tendenz (hPa in 3 Std.)
Do, 29.10. 15:30 1020 + 0,8
Do, 29.10. 15:20 1020 keine Meldung
Do, 29.10. 15:10 1019 keine Meldung
Do, 29.10. 15:00 1019 + 0,7
Do, 29.10. 14:50 1019 keine Meldung
Do, 29.10. 14:40 1019 keine Meldung
Do, 29.10. 14:30 1019 + 0,6
Do, 29.10. 14:00 1019 + 0,8
Do, 29.10. 12:00 1019 + 2,2
Ortszeit Schneehöhe (cm)
Do, 29.10. 13:00 0
Do, 29.10. 7:00 0
Do, 29.10. 1:00 0
Mi, 28.10. 19:00 0
Mi, 28.10. 13:00 0
Mi, 28.10. 7:00 0
Mi, 28.10. 1:00 0
Di, 27.10. 19:00 0
Ortszeit Schneehöhe (cm)
Do, 29.10. 15:30 0
Do, 29.10. 15:20 0
Do, 29.10. 15:10 0
Do, 29.10. 15:00 0
Do, 29.10. 14:50 0
Do, 29.10. 14:40 0
Do, 29.10. 14:30 0
Do, 29.10. 14:00 0
Do, 29.10. 12:00 -
Link zu dieser Seite / Seite empfehlen

Das Wetter in ...